« Back
NWS Peachtree City, Ga » Text Product » CSG Terminal Aerodrome Forecast


Printer-friendly Version
Current Version              Previous Versions:   1  2  3  4  5  6  7  8  9  

Terminal Aerodrome Forecast

061
FTUS42 KFFC 182156 AAA
TAFCSG
TAF AMD
KCSG 182156Z 1822/1918 32005KT P6SM SCT060 BKN120
      TEMPO 1822/1902 BKN060
     FM190200 34003KT P6SM SCT080 BKN150
     FM190900 00000KT P6SM SCT150
     FM191500 02003KT P6SM OVC150=

USA.gov is the U.S. government's official web portal to all federal, state and local government web resources and services.